TimeEST,TemperatureF,Dew PointF,Humidity,Sea Level PressureIn,VisibilityMPH,Wind Direction,Wind SpeedMPH,Gust SpeedMPH,PrecipitationIn,Events,Conditions,WindDirDegrees,DateUTC
12:53 AM,30.9,30.0,96,29.96,0.8,North,11.5,-,0.03,Snow,Light Snow,360,2013-03-08 05:53:00
1:12 AM,30.2,30.2,100,29.95,1.0,North,13.8,20.7,0.01,Snow,Light Snow,360,2013-03-08 06:12:00
1:32 AM,30.2,28.4,93,29.95,0.8,North,8.1,20.7,0.02,Snow,Light Snow,360,2013-03-08 06:32:00
1:53 AM,30.9,28.9,92,29.95,0.8,North,12.7,-,0.03,Snow,Light Snow,360,2013-03-08 06:53:00
2:25 AM,30.2,28.4,93,29.93,1.0,North,11.5,17.3,0.02,Snow,Light Snow,360,2013-03-08 07:25:00
2:53 AM,30.9,28.9,92,29.93,1.5,North,10.4,-,0.03,Snow,Light Snow,360,2013-03-08 07:53:00
3:21 AM,30.2,28.4,93,29.93,1.0,North,11.5,19.6,0.00,Snow,Light Snow,360,2013-03-08 08:21:00
3:25 AM,30.2,28.4,93,29.93,0.8,North,13.8,19.6,0.00,Snow,Light Snow,10,2013-03-08 08:25:00
3:45 AM,30.2,28.4,93,29.92,1.0,North,15.0,20.7,0.01,Snow,Light Snow,360,2013-03-08 08:45:00
3:53 AM,30.9,28.9,92,29.93,1.0,North,11.5,20.7,0.01,Snow,Light Snow,360,2013-03-08 08:53:00
3:55 AM,30.2,28.4,93,29.92,0.8,North,15.0,20.7,0.00,Snow,Light Snow,10,2013-03-08 08:55:00
4:18 AM,30.2,28.4,93,29.93,1.0,North,10.4,17.3,0.02,Snow,Light Snow,360,2013-03-08 09:18:00
4:44 AM,30.2,28.4,93,29.92,0.8,North,10.4,23.0,0.02,Snow,Light Snow,360,2013-03-08 09:44:00
4:53 AM,30.9,28.9,92,29.93,0.8,North,9.2,18.4,0.03,Snow,Light Snow,10,2013-03-08 09:53:00
5:03 AM,30.2,28.4,93,29.93,1.0,North,10.4,-,0.01,Snow,Light Snow,10,2013-03-08 10:03:00
5:06 AM,30.2,28.4,93,29.93,0.8,North,10.4,19.6,0.01,Snow,Light Snow,10,2013-03-08 10:06:00
5:27 AM,30.2,28.4,93,29.93,0.8,North,11.5,19.6,0.02,Snow,Light Snow,10,2013-03-08 10:27:00
5:53 AM,30.0,28.9,96,29.94,0.5,North,11.5,-,0.05,Fog-Snow,Snow,360,2013-03-08 10:53:00
6:53 AM,30.0,28.9,96,29.94,0.2,North,9.2,19.6,0.08,Fog-Snow,Snow,10,2013-03-08 11:53:00
7:19 AM,30.2,28.4,93,29.94,0.2,North,10.4,20.7,0.03,Fog-Snow,Snow,10,2013-03-08 12:19:00
7:53 AM,30.0,28.9,96,29.95,0.2,North,13.8,23.0,0.07,Fog-Snow,Snow,10,2013-03-08 12:53:00
8:53 AM,30.0,28.0,92,29.95,0.2,North,9.2,20.7,0.04,Fog-Snow,Snow,10,2013-03-08 13:53:00
9:53 AM,30.9,28.0,89,29.97,0.2,North,11.5,20.7,0.05,Fog-Snow,Snow,10,2013-03-08 14:53:00
10:11 AM,30.2,28.4,93,29.98,0.5,NNE,11.5,23.0,0.01,Fog-Snow,Snow,20,2013-03-08 15:11:00
10:20 AM,30.2,28.4,93,29.98,0.2,NNE,12.7,20.7,0.02,Fog-Snow,Snow,20,2013-03-08 15:20:00
10:53 AM,30.9,28.0,89,29.98,0.2,North,11.5,23.0,0.05,Fog-Snow,Snow,10,2013-03-08 15:53:00
11:53 AM,30.9,28.9,92,30.00,0.2,North,12.7,21.9,0.06,Fog-Snow,Snow,10,2013-03-08 16:53:00
12:53 PM,32.0,30.0,92,29.99,0.5,North,11.5,19.6,0.05,Fog-Snow,Snow,10,2013-03-08 17:53:00
1:53 PM,33.1,30.9,92,30.00,0.5,North,11.5,19.6,0.05,Fog-Snow,Snow,10,2013-03-08 18:53:00
2:12 PM,33.8,30.2,87,30.00,0.5,North,10.4,18.4,0.02,Fog-Snow,Snow,360,2013-03-08 19:12:00
2:20 PM,33.8,30.2,87,30.01,0.5,North,9.2,18.4,0.02,Fog-Snow,Snow,360,2013-03-08 19:20:00
2:31 PM,33.8,30.2,87,30.01,0.5,NNE,9.2,20.7,0.03,Fog-Snow,Light Snow,20,2013-03-08 19:31:00
2:53 PM,35.1,30.0,82,30.01,1.5,North,12.7,23.0,0.04,Snow,Light Snow,10,2013-03-08 19:53:00
3:02 PM,35.6,30.2,81,30.02,2.0,NNE,19.6,29.9,0.00,Snow,Light Snow,20,2013-03-08 20:02:00
3:09 PM,35.6,30.2,81,30.02,1.5,North,15.0,29.9,0.00,Snow,Light Snow,10,2013-03-08 20:09:00
3:19 PM,35.6,30.2,81,30.02,2.5,NNE,13.8,20.7,0.00,Snow,Light Snow,20,2013-03-08 20:19:00
3:40 PM,35.6,30.2,81,30.03,1.0,NNE,13.8,21.9,0.00,Snow,Light Snow,20,2013-03-08 20:40:00
3:49 PM,35.6,32.0,87,30.03,0.8,North,8.1,25.3,0.01,Snow,Light Snow,10,2013-03-08 20:49:00
3:53 PM,34.0,32.0,92,30.04,0.8,NNE,11.5,20.7,0.01,Snow,Light Snow,20,2013-03-08 20:53:00
4:24 PM,35.6,32.0,87,30.06,1.2,NNE,17.3,24.2,0.02,Snow,Light Snow,30,2013-03-08 21:24:00
4:49 PM,35.6,32.0,87,30.06,3.0,NNE,11.5,26.5,0.04,Snow,Light Snow,20,2013-03-08 21:49:00
4:53 PM,37.0,30.9,79,30.06,4.0,NNE,12.7,23.0,0.04,Snow,Light Snow,20,2013-03-08 21:53:00
5:20 PM,41.0,24.8,53,30.06,10.0,NE,18.4,26.5,0.00,,Overcast,40,2013-03-08 22:20:00
5:53 PM,42.1,21.9,45,30.07,10.0,NNE,10.4,28.8,0.00,,Overcast,20,2013-03-08 22:53:00
6:53 PM,39.9,25.0,55,30.08,10.0,North,4.6,-,N/A,,Overcast,360,2013-03-08 23:53:00
7:53 PM,39.0,25.0,57,30.09,10.0,North,4.6,-,N/A,,Mostly Cloudy,350,2013-03-09 00:53:00
8:53 PM,39.9,23.0,51,30.11,10.0,North,9.2,-,N/A,,Clear,360,2013-03-09 01:53:00
9:53 PM,39.9,21.0,47,30.13,10.0,North,11.5,-,N/A,,Clear,10,2013-03-09 02:53:00
10:53 PM,37.9,21.9,53,30.13,10.0,North,6.9,-,N/A,,Clear,360,2013-03-09 03:53:00
11:53 PM,37.9,21.0,51,30.13,10.0,North,9.2,-,N/A,,Clear,360,2013-03-09 04:53:00